Silverstone, North Carolina
Current Conditions -  °F | °C
As of 10:15 AM on Thursday 23 Oct 2014 (Local Time) from KTNB Reporting Station
Clear Clear  
Wind Chill: 36°   Ceiling: Unl
Heat Index: 43°   Visibility: 10mi
Dew Point: 33°   Wind: 15mph
Humidity: 68%   Direction: 290°WNW
Pressure: 30.14"   Gusts: 24mph
Location:  36.3301°N, 81.7398°W
Report Text: KTNB 231415Z AUTO 29013G21KT 10SM CLR 06/01 A3014 RMK AO2 T00620007
Loading
Personal Weather Stations






























Interactive Weather Map
Tropical Storm Tracking
New forecast layout! Learn more

10-Day Weather Forecast

Advertisements
Track Severe Weather on mobile